SGO200 LICC-LGIR
Flight info
| Callsign | SGO200 |
|---|---|
| Flight time | 1h 35m |
| Altitude | 27000 |
| Route | ALUDU DCT PLH DCT BAVES |
| Aircraft | C130/H-SDE2E3FGRY/H |
Departure
| Time | 2026-05-04 09:38 |
|---|---|
| Airport | Catania-Fontanarossa Airport (LICC) |
Arrival
| Time | 2026-05-04 11:13 |
|---|---|
| Airport | Heraklion International Nikos Kazantzakis Airport (LGIR) |
| Time | Latitude | Longitude | Altitude | Speed | Heading |
|---|---|---|---|---|---|
| 2026-05-04 09:19 | 37.46969 | 15.06404 | 23 ft | 0 kts | 32° |
| 2026-05-04 09:28 | 37.46966 | 15.06402 | 23 ft | 2 kts | 32° |
| 2026-05-04 09:28 | 37.46953 | 15.06391 | 24 ft | 2 kts | 32° |
| 2026-05-04 09:28 | 37.46939 | 15.06380 | 24 ft | 2 kts | 32° |
| 2026-05-04 09:28 | 37.46924 | 15.06371 | 24 ft | 2 kts | 25° |
| 2026-05-04 09:29 | 37.46909 | 15.06362 | 23 ft | 2 kts | 18° |
| 2026-05-04 09:29 | 37.46893 | 15.06362 | 23 ft | 2 kts | 349° |
| 2026-05-04 09:29 | 37.46877 | 15.06366 | 25 ft | 2 kts | 351° |
| 2026-05-04 09:29 | 37.46861 | 15.06369 | 24 ft | 2 kts | 351° |
| 2026-05-04 09:30 | 37.46845 | 15.06370 | 25 ft | 2 kts | 12° |
| 2026-05-04 09:30 | 37.46831 | 15.06360 | 25 ft | 2 kts | 48° |
| 2026-05-04 09:30 | 37.46830 | 15.06349 | 24 ft | 0 kts | 100° |
| 2026-05-04 09:32 | 37.46826 | 15.06383 | 24 ft | 7 kts | 94° |
| 2026-05-04 09:34 | 37.46924 | 15.07711 | 26 ft | 26 kts | 86° |
| 2026-05-04 09:34 | 37.46944 | 15.07915 | 23 ft | 22 kts | 82° |
| 2026-05-04 09:34 | 37.46950 | 15.08040 | 26 ft | 0 kts | 110° |
| 2026-05-04 09:37 | 37.46789 | 15.07937 | 25 ft | 13 kts | 265° |
| 2026-05-04 09:37 | 37.46751 | 15.07485 | 24 ft | 88 kts | 262° |
| 2026-05-04 09:38 | 37.46664 | 15.06461 | 120 ft | 140 kts | 263° |
| 2026-05-04 09:38 | 37.46573 | 15.05098 | 415 ft | 172 kts | 265° |
| 2026-05-04 09:38 | 37.46485 | 15.03493 | 810 ft | 193 kts | 261° |
| 2026-05-04 09:38 | 37.45845 | 15.01963 | 1222 ft | 210 kts | 223° |
| 2026-05-04 09:39 | 37.44487 | 15.01208 | 1691 ft | 224 kts | 188° |
| 2026-05-04 09:39 | 37.42946 | 15.01603 | 2251 ft | 235 kts | 154° |
| 2026-05-04 09:39 | 37.41763 | 15.03028 | 2855 ft | 242 kts | 122° |
| 2026-05-04 09:39 | 37.41232 | 15.05045 | 3423 ft | 245 kts | 103° |
| 2026-05-04 09:40 | 37.41008 | 15.07171 | 4083 ft | 246 kts | 91° |
| 2026-05-04 09:40 | 37.41024 | 15.09330 | 4661 ft | 247 kts | 89° |
| 2026-05-04 09:40 | 37.41054 | 15.11498 | 5202 ft | 248 kts | 93° |
| 2026-05-04 09:40 | 37.40583 | 15.13586 | 5715 ft | 249 kts | 111° |
| 2026-05-04 09:41 | 37.39946 | 15.15612 | 6287 ft | 249 kts | 111° |
| 2026-05-04 09:42 | 37.32756 | 15.28807 | 9688 ft | 303 kts | 128° |
| 2026-05-04 09:43 | 37.31408 | 15.30893 | 10177 ft | 312 kts | 128° |
| 2026-05-04 09:43 | 37.30019 | 15.33037 | 10650 ft | 319 kts | 128° |
| 2026-05-04 09:43 | 37.28607 | 15.35223 | 11152 ft | 325 kts | 128° |
| 2026-05-04 09:43 | 37.27177 | 15.37445 | 11658 ft | 329 kts | 128° |
| 2026-05-04 09:44 | 37.25733 | 15.39698 | 12192 ft | 333 kts | 128° |
| 2026-05-04 09:44 | 37.24277 | 15.41984 | 12732 ft | 336 kts | 128° |
| 2026-05-04 09:44 | 37.22814 | 15.44289 | 13292 ft | 340 kts | 128° |
| 2026-05-04 09:46 | 37.13211 | 15.61535 | 17029 ft | 351 kts | 109° |
| 2026-05-04 09:46 | 37.12471 | 15.64447 | 17570 ft | 350 kts | 101° |
| 2026-05-04 09:46 | 37.12010 | 15.67439 | 18107 ft | 351 kts | 104° |
| 2026-05-04 09:47 | 37.11281 | 15.70361 | 18638 ft | 351 kts | 108° |
| 2026-05-04 09:47 | 37.10520 | 15.73271 | 19109 ft | 352 kts | 106° |
| 2026-05-04 09:49 | 37.06086 | 15.94105 | 22393 ft | 355 kts | 102° |
| 2026-05-04 09:49 | 37.05489 | 15.97119 | 22762 ft | 358 kts | 102° |
| 2026-05-04 09:49 | 37.04884 | 16.00155 | 23143 ft | 361 kts | 102° |
| 2026-05-04 09:51 | 37.01110 | 16.18574 | 25142 ft | 366 kts | 102° |
| 2026-05-04 09:51 | 37.00469 | 16.21664 | 25464 ft | 367 kts | 102° |
| 2026-05-04 09:51 | 36.99828 | 16.24751 | 25772 ft | 367 kts | 102° |
| 2026-05-04 09:51 | 36.99185 | 16.27842 | 26081 ft | 367 kts | 102° |
| 2026-05-04 09:52 | 36.98543 | 16.30927 | 26388 ft | 367 kts | 102° |
| 2026-05-04 09:52 | 36.97899 | 16.34022 | 26693 ft | 367 kts | 102° |
| 2026-05-04 09:52 | 36.97253 | 16.37124 | 26904 ft | 371 kts | 102° |
| 2026-05-04 09:52 | 36.96600 | 16.40265 | 27028 ft | 376 kts | 102° |
| 2026-05-04 09:53 | 36.95949 | 16.43410 | 27090 ft | 381 kts | 102° |
| 2026-05-04 09:53 | 36.95274 | 16.46667 | 27165 ft | 383 kts | 102° |
| 2026-05-04 09:53 | 36.94603 | 16.49897 | 27205 ft | 386 kts | 102° |
| 2026-05-04 09:53 | 36.93929 | 16.53155 | 27198 ft | 389 kts | 102° |
| 2026-05-04 09:54 | 36.93248 | 16.56443 | 27199 ft | 392 kts | 102° |
| 2026-05-04 09:54 | 36.92572 | 16.59706 | 27204 ft | 394 kts | 102° |
| 2026-05-04 09:54 | 36.91883 | 16.63030 | 27218 ft | 396 kts | 102° |
| 2026-05-04 09:54 | 36.91191 | 16.66364 | 27226 ft | 397 kts | 102° |
| 2026-05-04 09:55 | 36.90496 | 16.69708 | 27232 ft | 399 kts | 102° |
| 2026-05-04 09:55 | 36.89796 | 16.73068 | 27231 ft | 400 kts | 102° |
| 2026-05-04 09:55 | 36.89096 | 16.76430 | 27236 ft | 401 kts | 102° |
| 2026-05-04 09:55 | 36.88391 | 16.79801 | 27237 ft | 402 kts | 102° |
| 2026-05-04 09:56 | 36.87685 | 16.83175 | 27235 ft | 402 kts | 102° |
| 2026-05-04 09:56 | 36.86977 | 16.86557 | 27240 ft | 403 kts | 102° |
| 2026-05-04 09:56 | 36.86266 | 16.89941 | 27241 ft | 403 kts | 102° |
| 2026-05-04 09:56 | 36.85553 | 16.93332 | 27243 ft | 404 kts | 102° |
| 2026-05-04 09:57 | 36.84838 | 16.96724 | 27246 ft | 404 kts | 102° |
| 2026-05-04 09:57 | 36.84122 | 17.00114 | 27248 ft | 404 kts | 102° |
| 2026-05-04 09:57 | 36.83403 | 17.03509 | 27250 ft | 405 kts | 102° |
| 2026-05-04 09:57 | 36.82683 | 17.06905 | 27250 ft | 405 kts | 102° |
| 2026-05-04 09:58 | 36.81960 | 17.10306 | 27252 ft | 405 kts | 102° |
| 2026-05-04 09:58 | 36.81235 | 17.13706 | 27249 ft | 405 kts | 102° |
| 2026-05-04 09:58 | 36.80509 | 17.17103 | 27251 ft | 406 kts | 102° |
| 2026-05-04 10:00 | 36.75619 | 17.39779 | 27261 ft | 407 kts | 102° |
| 2026-05-04 10:00 | 36.74879 | 17.43182 | 27261 ft | 407 kts | 102° |
| 2026-05-04 10:02 | 36.69656 | 17.67026 | 27270 ft | 408 kts | 102° |
| 2026-05-04 10:04 | 36.64376 | 17.90874 | 27277 ft | 408 kts | 102° |
| 2026-05-04 10:04 | 36.63629 | 17.94237 | 27280 ft | 408 kts | 102° |
| 2026-05-04 10:04 | 36.62874 | 17.97639 | 27282 ft | 408 kts | 102° |
| 2026-05-04 10:04 | 36.62116 | 18.01042 | 27275 ft | 408 kts | 102° |
| 2026-05-04 10:05 | 36.61355 | 18.04449 | 27278 ft | 408 kts | 102° |
| 2026-05-04 10:05 | 36.60594 | 18.07852 | 27281 ft | 408 kts | 102° |
| 2026-05-04 10:05 | 36.59834 | 18.11255 | 27276 ft | 408 kts | 102° |
| 2026-05-04 10:05 | 36.59073 | 18.14658 | 27290 ft | 408 kts | 102° |
| 2026-05-04 10:06 | 36.58311 | 18.18064 | 27290 ft | 408 kts | 102° |
| 2026-05-04 10:06 | 36.57550 | 18.21469 | 27292 ft | 408 kts | 102° |
| 2026-05-04 10:06 | 36.56789 | 18.24868 | 27296 ft | 409 kts | 102° |
| 2026-05-04 10:08 | 36.52203 | 18.45302 | 27309 ft | 409 kts | 102° |
| 2026-05-04 10:08 | 36.51435 | 18.48712 | 27313 ft | 410 kts | 102° |
| 2026-05-04 10:08 | 36.50666 | 18.52122 | 27312 ft | 410 kts | 102° |
| 2026-05-04 10:08 | 36.49897 | 18.55529 | 27319 ft | 410 kts | 102° |
| 2026-05-04 10:09 | 36.49126 | 18.58938 | 27318 ft | 410 kts | 102° |
| 2026-05-04 10:09 | 36.48354 | 18.62348 | 27323 ft | 410 kts | 102° |
| 2026-05-04 10:09 | 36.47580 | 18.65762 | 27323 ft | 410 kts | 102° |
| 2026-05-04 10:09 | 36.46806 | 18.69177 | 27327 ft | 411 kts | 102° |
| 2026-05-04 10:10 | 36.46031 | 18.72585 | 27328 ft | 411 kts | 102° |
| 2026-05-04 10:10 | 36.45252 | 18.76001 | 27331 ft | 411 kts | 102° |
| 2026-05-04 10:10 | 36.44474 | 18.79420 | 27330 ft | 411 kts | 102° |
| 2026-05-04 10:10 | 36.43695 | 18.82831 | 27342 ft | 411 kts | 102° |
| 2026-05-04 10:11 | 36.42913 | 18.86249 | 27342 ft | 411 kts | 102° |
| 2026-05-04 10:11 | 36.42129 | 18.89669 | 27343 ft | 412 kts | 102° |
| 2026-05-04 10:11 | 36.41345 | 18.93084 | 27346 ft | 412 kts | 102° |
| 2026-05-04 10:11 | 36.40559 | 18.96503 | 27352 ft | 412 kts | 102° |
| 2026-05-04 10:12 | 36.39770 | 18.99926 | 27351 ft | 412 kts | 102° |
| 2026-05-04 10:12 | 36.38991 | 19.03298 | 27353 ft | 412 kts | 102° |
| 2026-05-04 10:12 | 36.38199 | 19.06721 | 27354 ft | 413 kts | 102° |
| 2026-05-04 10:12 | 36.37395 | 19.10188 | 27363 ft | 413 kts | 102° |
| 2026-05-04 10:13 | 36.36601 | 19.13607 | 27364 ft | 413 kts | 102° |
| 2026-05-04 10:13 | 36.35803 | 19.17032 | 27368 ft | 413 kts | 102° |
| 2026-05-04 10:13 | 36.35015 | 19.20412 | 27366 ft | 413 kts | 102° |
| 2026-05-04 10:13 | 36.34215 | 19.23835 | 27374 ft | 414 kts | 102° |
| 2026-05-04 10:14 | 36.33412 | 19.27263 | 27377 ft | 414 kts | 102° |
| 2026-05-04 10:14 | 36.32607 | 19.30689 | 27379 ft | 414 kts | 102° |
| 2026-05-04 10:16 | 36.26907 | 19.54698 | 27410 ft | 416 kts | 102° |
| 2026-05-04 10:16 | 36.26082 | 19.58135 | 27414 ft | 416 kts | 102° |
| 2026-05-04 10:16 | 36.25257 | 19.61566 | 27415 ft | 416 kts | 102° |
| 2026-05-04 10:16 | 36.24428 | 19.65003 | 27421 ft | 416 kts | 102° |
| 2026-05-04 10:17 | 36.23598 | 19.68439 | 27421 ft | 417 kts | 102° |
| 2026-05-04 10:17 | 36.22766 | 19.71877 | 27423 ft | 417 kts | 102° |
| 2026-05-04 10:19 | 36.16893 | 19.95987 | 27441 ft | 419 kts | 102° |
| 2026-05-04 10:19 | 36.16046 | 19.99435 | 27447 ft | 419 kts | 102° |
| 2026-05-04 10:19 | 36.15197 | 20.02884 | 27448 ft | 419 kts | 102° |
| 2026-05-04 10:19 | 36.14345 | 20.06342 | 27457 ft | 420 kts | 102° |
| 2026-05-04 10:20 | 36.13492 | 20.09794 | 27456 ft | 420 kts | 102° |
| 2026-05-04 10:20 | 36.12638 | 20.13248 | 27460 ft | 420 kts | 102° |
| 2026-05-04 10:20 | 36.11780 | 20.16709 | 27462 ft | 421 kts | 102° |
| 2026-05-04 10:20 | 36.10921 | 20.20163 | 27471 ft | 421 kts | 102° |
| 2026-05-04 10:21 | 36.10070 | 20.23581 | 27475 ft | 421 kts | 102° |
| 2026-05-04 10:21 | 36.09207 | 20.27041 | 27476 ft | 421 kts | 102° |
| 2026-05-04 10:21 | 36.08341 | 20.30504 | 27481 ft | 422 kts | 102° |
| 2026-05-04 10:21 | 36.07474 | 20.33967 | 27489 ft | 422 kts | 102° |
| 2026-05-04 10:22 | 36.05731 | 20.40899 | 27495 ft | 423 kts | 102° |
| 2026-05-04 10:22 | 36.04855 | 20.44370 | 27497 ft | 423 kts | 102° |
| 2026-05-04 10:22 | 36.03979 | 20.47836 | 27506 ft | 423 kts | 102° |
| 2026-05-04 10:23 | 36.03099 | 20.51305 | 27508 ft | 423 kts | 102° |
| 2026-05-04 10:23 | 36.02217 | 20.54776 | 27509 ft | 424 kts | 102° |
| 2026-05-04 10:25 | 35.95979 | 20.79115 | 27543 ft | 426 kts | 102° |
| 2026-05-04 10:25 | 35.95079 | 20.82598 | 27543 ft | 426 kts | 102° |
| 2026-05-04 10:25 | 35.94180 | 20.86077 | 27547 ft | 426 kts | 102° |
| 2026-05-04 10:25 | 35.93277 | 20.89566 | 27559 ft | 427 kts | 102° |
| 2026-05-04 10:26 | 35.92368 | 20.93051 | 27559 ft | 427 kts | 103° |
| 2026-05-04 10:26 | 35.91427 | 20.96531 | 27563 ft | 428 kts | 104° |
| 2026-05-04 10:26 | 35.90436 | 20.99995 | 27566 ft | 429 kts | 105° |
| 2026-05-04 10:26 | 35.89415 | 21.03450 | 27575 ft | 429 kts | 105° |
| 2026-05-04 10:27 | 35.88380 | 21.06903 | 27575 ft | 430 kts | 105° |
| 2026-05-04 10:27 | 35.87339 | 21.10357 | 27579 ft | 430 kts | 105° |
| 2026-05-04 10:27 | 35.86293 | 21.13814 | 27581 ft | 430 kts | 105° |
| 2026-05-04 10:27 | 35.85248 | 21.17266 | 27590 ft | 431 kts | 105° |
| 2026-05-04 10:28 | 35.84198 | 21.20728 | 27595 ft | 431 kts | 105° |
| 2026-05-04 10:28 | 35.83148 | 21.24186 | 27598 ft | 431 kts | 105° |
| 2026-05-04 10:28 | 35.82098 | 21.27647 | 27601 ft | 431 kts | 105° |
| 2026-05-04 10:28 | 35.81046 | 21.31109 | 27607 ft | 432 kts | 105° |
| 2026-05-04 10:29 | 35.79993 | 21.34572 | 27610 ft | 432 kts | 105° |
| 2026-05-04 10:29 | 35.78939 | 21.38039 | 27612 ft | 432 kts | 105° |
| 2026-05-04 10:29 | 35.77884 | 21.41510 | 27616 ft | 433 kts | 105° |
| 2026-05-04 10:29 | 35.76829 | 21.44975 | 27626 ft | 433 kts | 105° |
| 2026-05-04 10:30 | 35.75771 | 21.48451 | 27626 ft | 433 kts | 105° |
| 2026-05-04 10:30 | 35.74712 | 21.51927 | 27628 ft | 434 kts | 105° |
| 2026-05-04 10:30 | 35.73653 | 21.55404 | 27631 ft | 434 kts | 105° |
| 2026-05-04 10:30 | 35.72594 | 21.58882 | 27641 ft | 434 kts | 105° |
| 2026-05-04 10:31 | 35.71534 | 21.62364 | 27641 ft | 434 kts | 105° |
| 2026-05-04 10:31 | 35.70474 | 21.65846 | 27644 ft | 435 kts | 105° |
| 2026-05-04 10:32 | 35.64142 | 21.86768 | 27462 ft | 434 kts | 105° |
| 2026-05-04 10:33 | 35.63109 | 21.90259 | 27467 ft | 434 kts | 105° |
| 2026-05-04 10:33 | 35.62078 | 21.93746 | 27467 ft | 434 kts | 105° |
| 2026-05-04 10:33 | 35.61050 | 21.97225 | 27467 ft | 434 kts | 105° |
| 2026-05-04 10:33 | 35.60020 | 22.00710 | 27469 ft | 434 kts | 105° |
| 2026-05-04 10:34 | 35.58991 | 22.04192 | 27471 ft | 434 kts | 105° |
| 2026-05-04 10:34 | 35.57962 | 22.07674 | 27471 ft | 434 kts | 105° |
| 2026-05-04 10:34 | 35.56946 | 22.11110 | 27474 ft | 434 kts | 105° |
| 2026-05-04 10:34 | 35.55918 | 22.14588 | 27479 ft | 434 kts | 105° |
| 2026-05-04 10:35 | 35.54887 | 22.18070 | 27478 ft | 434 kts | 105° |
| 2026-05-04 10:35 | 35.53858 | 22.21547 | 27480 ft | 434 kts | 105° |
| 2026-05-04 10:35 | 35.52825 | 22.25031 | 27479 ft | 434 kts | 105° |
| 2026-05-04 10:35 | 35.51794 | 22.28511 | 27479 ft | 434 kts | 105° |
| 2026-05-04 10:36 | 35.50761 | 22.31996 | 27480 ft | 434 kts | 105° |
| 2026-05-04 10:36 | 35.49729 | 22.35479 | 27481 ft | 434 kts | 105° |
| 2026-05-04 10:36 | 35.48696 | 22.38962 | 27486 ft | 434 kts | 105° |
| 2026-05-04 10:36 | 35.47664 | 22.42444 | 27486 ft | 435 kts | 105° |
| 2026-05-04 10:37 | 35.46630 | 22.45928 | 27488 ft | 435 kts | 105° |
| 2026-05-04 10:37 | 35.45596 | 22.49416 | 27489 ft | 435 kts | 105° |
| 2026-05-04 10:37 | 35.44563 | 22.52905 | 27490 ft | 435 kts | 105° |
| 2026-05-04 10:37 | 35.43635 | 22.56425 | 27493 ft | 433 kts | 102° |
| 2026-05-04 10:39 | 35.38675 | 22.77741 | 27511 ft | 434 kts | 101° |
| 2026-05-04 10:39 | 35.37855 | 22.81299 | 27514 ft | 434 kts | 101° |
| 2026-05-04 10:39 | 35.37034 | 22.84857 | 27514 ft | 434 kts | 101° |
| 2026-05-04 10:40 | 35.36211 | 22.88423 | 27519 ft | 435 kts | 101° |
| 2026-05-04 10:40 | 35.35389 | 22.91985 | 27520 ft | 435 kts | 101° |
| 2026-05-04 10:40 | 35.34565 | 22.95551 | 27520 ft | 435 kts | 101° |
| 2026-05-04 10:40 | 35.33742 | 22.99121 | 27524 ft | 435 kts | 101° |
| 2026-05-04 10:41 | 35.32920 | 23.02687 | 27524 ft | 435 kts | 101° |
| 2026-05-04 10:41 | 35.32099 | 23.06254 | 27525 ft | 436 kts | 101° |
| 2026-05-04 10:41 | 35.31276 | 23.09827 | 27528 ft | 436 kts | 101° |
| 2026-05-04 10:41 | 35.30455 | 23.13397 | 27534 ft | 436 kts | 101° |
| 2026-05-04 10:42 | 35.29633 | 23.16970 | 27534 ft | 436 kts | 101° |
| 2026-05-04 10:42 | 35.28812 | 23.20540 | 27533 ft | 436 kts | 101° |
| 2026-05-04 10:42 | 35.27991 | 23.24113 | 27536 ft | 436 kts | 101° |
| 2026-05-04 10:42 | 35.27169 | 23.27688 | 27537 ft | 436 kts | 101° |
| 2026-05-04 10:43 | 35.26346 | 23.31268 | 27541 ft | 437 kts | 101° |
| 2026-05-04 10:44 | 35.23067 | 23.56563 | 27556 ft | 428 kts | 86° |
| 2026-05-04 10:45 | 35.22941 | 23.60189 | 27560 ft | 427 kts | 85° |
| 2026-05-04 10:45 | 35.22858 | 23.63817 | 27559 ft | 426 kts | 84° |
| 2026-05-04 10:45 | 35.22794 | 23.67435 | 27563 ft | 426 kts | 84° |
| 2026-05-04 10:45 | 35.22857 | 23.71043 | 27561 ft | 422 kts | 78° |
| 2026-05-04 10:46 | 35.23097 | 23.74602 | 27565 ft | 419 kts | 76° |
| 2026-05-04 10:46 | 35.23427 | 23.78092 | 27568 ft | 418 kts | 75° |
| 2026-05-04 10:46 | 35.23800 | 23.81612 | 27573 ft | 417 kts | 74° |
| 2026-05-04 10:46 | 35.24182 | 23.85130 | 27571 ft | 418 kts | 74° |
| 2026-05-04 10:47 | 35.24566 | 23.88643 | 27573 ft | 416 kts | 74° |
| 2026-05-04 10:47 | 35.24950 | 23.92154 | 27577 ft | 416 kts | 74° |
| 2026-05-04 10:47 | 35.25353 | 23.95657 | 27572 ft | 415 kts | 73° |
| 2026-05-04 10:47 | 35.25790 | 23.99128 | 27573 ft | 412 kts | 72° |
| 2026-05-04 10:49 | 35.29614 | 24.21745 | 27605 ft | 411 kts | 69° |
| 2026-05-04 10:49 | 35.30202 | 24.25174 | 27612 ft | 413 kts | 69° |
| 2026-05-04 10:50 | 35.30792 | 24.28610 | 27617 ft | 413 kts | 69° |
| 2026-05-04 10:51 | 35.34901 | 24.52771 | 27641 ft | 415 kts | 69° |
| 2026-05-04 10:52 | 35.35485 | 24.56239 | 27648 ft | 416 kts | 69° |
| 2026-05-04 10:52 | 35.36070 | 24.59715 | 27653 ft | 416 kts | 69° |
| 2026-05-04 10:52 | 35.36653 | 24.63187 | 27656 ft | 417 kts | 69° |
| 2026-05-04 10:54 | 35.39362 | 24.85897 | 25438 ft | 385 kts | 87° |
| 2026-05-04 10:54 | 35.38993 | 24.89158 | 25014 ft | 387 kts | 93° |
| 2026-05-04 10:56 | 35.35059 | 25.11607 | 21076 ft | 385 kts | 96° |
| 2026-05-04 10:56 | 35.34739 | 25.14801 | 20474 ft | 370 kts | 80° |
| 2026-05-04 10:56 | 35.35272 | 25.17763 | 19885 ft | 347 kts | 58° |
| 2026-05-04 10:57 | 35.36493 | 25.20200 | 19317 ft | 329 kts | 45° |
| 2026-05-04 10:57 | 35.37881 | 25.22390 | 18787 ft | 322 kts | 43° |
| 2026-05-04 10:57 | 35.39336 | 25.24424 | 18232 ft | 314 kts | 39° |
| 2026-05-04 10:57 | 35.40852 | 25.26302 | 17633 ft | 307 kts | 37° |
| 2026-05-04 10:58 | 35.42387 | 25.28093 | 17049 ft | 302 kts | 36° |
| 2026-05-04 10:58 | 35.43925 | 25.29830 | 16488 ft | 298 kts | 36° |
| 2026-05-04 10:58 | 35.45456 | 25.31525 | 15941 ft | 294 kts | 35° |
| 2026-05-04 10:58 | 35.46973 | 25.33188 | 15399 ft | 291 kts | 35° |
| 2026-05-04 10:59 | 35.48480 | 25.34821 | 14869 ft | 288 kts | 35° |
| 2026-05-04 10:59 | 35.49981 | 25.36424 | 14358 ft | 285 kts | 35° |
| 2026-05-04 10:59 | 35.51473 | 25.38004 | 13841 ft | 282 kts | 35° |
| 2026-05-04 10:59 | 35.52950 | 25.39559 | 13315 ft | 276 kts | 35° |
| 2026-05-04 11:00 | 35.54384 | 25.41072 | 12705 ft | 270 kts | 35° |
| 2026-05-04 11:01 | 35.54872 | 25.53875 | 8245 ft | 289 kts | 152° |
| 2026-05-04 11:02 | 35.53096 | 25.54988 | 7661 ft | 285 kts | 154° |
| 2026-05-04 11:02 | 35.51336 | 25.56068 | 7102 ft | 281 kts | 154° |
| 2026-05-04 11:05 | 35.32217 | 25.54398 | 4983 ft | 177 kts | 249° |
| 2026-05-04 11:06 | 35.31802 | 25.53015 | 4980 ft | 171 kts | 268° |
| 2026-05-04 11:06 | 35.31650 | 25.51568 | 4996 ft | 172 kts | 270° |
| 2026-05-04 11:06 | 35.31529 | 25.50130 | 5007 ft | 168 kts | 272° |
| 2026-05-04 11:06 | 35.31474 | 25.48716 | 4984 ft | 166 kts | 275° |
| 2026-05-04 11:08 | 35.32953 | 25.38925 | 3736 ft | 157 kts | 290° |
| 2026-05-04 11:10 | 35.33782 | 25.30485 | 2019 ft | 124 kts | 273° |
| 2026-05-04 11:12 | 35.33349 | 25.23194 | 906 ft | 104 kts | 282° |
| 2026-05-04 11:12 | 35.33382 | 25.22307 | 1072 ft | 103 kts | 282° |
| 2026-05-04 11:12 | 35.33504 | 25.21414 | 1082 ft | 112 kts | 291° |
| 2026-05-04 11:12 | 35.33677 | 25.20544 | 799 ft | 98 kts | 287° |
| 2026-05-04 11:13 | 35.33814 | 25.19727 | 355 ft | 96 kts | 283° |
| 2026-05-04 11:13 | 35.33908 | 25.19002 | 116 ft | 75 kts | 270° |
| 2026-05-04 11:13 | 35.33911 | 25.18538 | 90 ft | 33 kts | 270° |
| 2026-05-04 11:13 | 35.33861 | 25.18308 | 98 ft | 31 kts | 271° |
| 2026-05-04 11:14 | 35.33883 | 25.18059 | 93 ft | 27 kts | 276° |
| 2026-05-04 11:14 | 35.33902 | 25.17851 | 92 ft | 22 kts | 279° |
| 2026-05-04 11:14 | 35.33907 | 25.17676 | 91 ft | 22 kts | 245° |
| 2026-05-04 11:16 | 35.33758 | 25.17560 | 89 ft | 0 kts | 275° |
| 2026-05-04 11:19 | 35.33904 | 25.16981 | 87 ft | 0 kts | 275° |
| 2026-05-04 11:19 | 35.33917 | 25.16955 | 87 ft | 0 kts | 229° |
| 2026-05-04 11:19 | 35.33897 | 25.16953 | 87 ft | 0 kts | 184° |